Ceres, West Virginia
Current Conditions -  °F | °C
As of 12:52 PM on Friday 21 Nov 2014 (Local Time) from KBLF Reporting Station
Clear Clear  
Wind Chill: 25°   Ceiling: Unl
Heat Index: 33°   Visibility: 10mi
Dew Point:   Wind: 9mph
Humidity: 35%   Direction: 270°W
Pressure: 30.37"   Gusts: NA
Location:  37.2994°N, 81.226°W
Report Text: KBLF 211752Z AUTO 27008KT 10SM CLR 01/M13 A3037 RMK AO2 SLP307 T00061133 10006 21067 50007
Loading
Personal Weather Stations






























Interactive Weather Map New forecast layout! Learn more

10-Day Weather Forecast

Advertisements
Track Severe Weather on mobile